createdAt,value
2022-10-22T00:00:01.992Z,100.46
2022-10-22T00:05:02.340Z,100.23
2022-10-22T00:10:02.231Z,100.04
2022-10-22T00:15:01.340Z,100.01
2022-10-22T00:20:01.354Z,99.94
2022-10-22T00:25:02.129Z,99.95
2022-10-22T00:30:01.312Z,100.01
2022-10-22T00:35:01.618Z,100.28
2022-10-22T00:40:01.626Z,100.34
2022-10-22T00:45:01.899Z,100.37
2022-10-22T00:50:01.505Z,100.3
2022-10-22T00:55:02.305Z,100.43
2022-10-22T01:00:01.904Z,100.42
2022-10-22T01:05:01.638Z,100.62
2022-10-22T01:10:01.921Z,100.94
2022-10-22T01:15:02.333Z,101.03
2022-10-22T01:20:02.149Z,101.26
2022-10-22T01:25:01.937Z,101.27
2022-10-22T01:30:01.688Z,101.32
2022-10-22T01:35:02.004Z,101.14
2022-10-22T01:40:01.340Z,101.25
2022-10-22T01:45:02.375Z,101.26
2022-10-22T01:50:02.111Z,101.21
2022-10-22T01:55:02.297Z,101.11
2022-10-22T02:00:01.468Z,100.88
2022-10-22T02:05:01.749Z,101.01
2022-10-22T02:10:02.223Z,100.7
2022-10-22T02:15:02.271Z,100.66
2022-10-22T02:20:01.480Z,100.64
2022-10-22T02:25:02.038Z,100.46
2022-10-22T02:30:01.809Z,100.37
2022-10-22T02:35:01.772Z,100.28
2022-10-22T02:40:01.453Z,100.43
2022-10-22T02:45:01.450Z,100.37
2022-10-22T02:50:03.566Z,100.44
2022-10-22T02:55:01.476Z,100.37
2022-10-22T03:00:01.728Z,100.4
2022-10-22T03:05:01.587Z,100.5
2022-10-22T03:10:01.643Z,100.62
2022-10-22T03:15:01.995Z,101.17
2022-10-22T03:20:01.777Z,101.41
2022-10-22T03:25:01.702Z,101.56
2022-10-22T03:30:02.050Z,101.62
2022-10-22T03:35:01.690Z,101.79
2022-10-22T03:40:01.875Z,101.83
2022-10-22T03:45:01.283Z,101.57
2022-10-22T03:50:01.809Z,101.98
2022-10-22T03:55:01.637Z,102.37
2022-10-22T04:00:01.827Z,102.81
2022-10-22T04:05:02.049Z,103.15
2022-10-22T04:10:01.586Z,103.06
2022-10-22T04:15:01.330Z,103.1
2022-10-22T04:20:02.197Z,103.05
2022-10-22T04:25:02.093Z,102.8
2022-10-22T04:30:01.493Z,102.33
2022-10-22T04:35:01.551Z,102.24
2022-10-22T04:40:01.357Z,101.89
2022-10-22T04:45:01.673Z,101.97
2022-10-22T04:50:01.755Z,101.84
2022-10-22T04:55:01.430Z,101.89
2022-10-22T05:00:01.658Z,101.74
2022-10-22T05:05:01.937Z,101.56
2022-10-22T05:10:02.131Z,101.43
2022-10-22T05:15:01.817Z,101.4
2022-10-22T05:20:01.980Z,100.98
2022-10-22T05:25:01.292Z,100.59
2022-10-22T05:30:01.520Z,100.62
2022-10-22T05:35:01.783Z,100.59
2022-10-22T05:40:12.649Z,100.72
2022-10-22T05:45:02.076Z,100.72
2022-10-22T05:50:01.545Z,100.6
2022-10-22T05:55:01.488Z,100.19
2022-10-22T06:00:01.638Z,100.52
2022-10-22T06:05:02.037Z,100.11
2022-10-22T06:10:02.022Z,99.9
2022-10-22T06:15:01.812Z,99.82
2022-10-22T06:20:01.824Z,99.91
2022-10-22T06:25:02.147Z,99.93
2022-10-22T06:30:01.882Z,100.24
2022-10-22T06:35:02.134Z,100.18
2022-10-22T06:40:01.624Z,100.15
2022-10-22T06:45:06.725Z,100.45
2022-10-22T06:50:01.644Z,100.84
2022-10-22T06:55:01.593Z,100.62
2022-10-22T07:00:01.662Z,100.63
2022-10-22T07:05:02.003Z,100.47
2022-10-22T07:10:01.430Z,100.16
2022-10-22T07:15:01.270Z,100.16
2022-10-22T07:20:02.023Z,100.4
2022-10-22T07:25:06.630Z,99.93
2022-10-22T07:30:02.059Z,99.81
2022-10-22T07:35:01.927Z,99.79
2022-10-22T07:40:03.854Z,99.78
2022-10-22T07:45:01.652Z,99.47
2022-10-22T07:50:01.981Z,98.37
2022-10-22T07:55:01.593Z,99.45
2022-10-22T08:00:02.199Z,99.18
2022-10-22T08:05:01.790Z,98.21
2022-10-22T08:10:01.306Z,95.28
2022-10-22T08:15:01.831Z,97.16
2022-10-22T08:20:01.788Z,95.51
2022-10-22T08:25:01.924Z,93.77
2022-10-22T08:30:01.980Z,92.64
2022-10-22T08:35:02.218Z,90.75
2022-10-22T08:40:01.376Z,90
2022-10-22T08:45:01.633Z,89.74
2022-10-22T08:50:02.362Z,90.02
2022-10-22T08:55:02.252Z,91.16
2022-10-22T09:00:01.619Z,92.11
2022-10-22T09:05:11.489Z,92.48
2022-10-22T09:10:02.153Z,91.06
2022-10-22T09:15:01.891Z,92.68
2022-10-22T09:20:01.782Z,93.39
2022-10-22T09:25:01.849Z,92.05
2022-10-22T09:30:01.912Z,93.65
2022-10-22T09:35:02.171Z,93.65
2022-10-22T09:40:01.935Z,94.23
2022-10-22T09:45:01.438Z,94.61
2022-10-22T09:50:01.741Z,94.29
2022-10-22T09:55:01.814Z,93
2022-10-22T10:00:01.781Z,93.87
2022-10-22T10:05:02.155Z,92.32
2022-10-22T10:10:02.150Z,93.7
2022-10-22T10:15:02.150Z,93.6
2022-10-22T10:20:03.969Z,94.4
2022-10-22T10:25:01.657Z,94.44
2022-10-22T10:30:02.266Z,93.36
2022-10-22T10:35:01.820Z,93.03
2022-10-22T10:40:01.580Z,93.67
2022-10-22T10:45:01.906Z,94.67
2022-10-22T10:50:01.427Z,95.1
2022-10-22T10:55:01.835Z,95.42
2022-10-22T11:00:01.854Z,95.51
2022-10-22T11:05:02.041Z,95.34
2022-10-22T11:10:01.700Z,94.09
2022-10-22T11:15:01.661Z,93.55
2022-10-22T11:20:02.091Z,94.09
2022-10-22T11:25:01.891Z,93.61
2022-10-22T11:30:01.437Z,93.27
2022-10-22T11:35:02.131Z,93.49
2022-10-22T11:40:02.093Z,94.15
2022-10-22T11:45:02.048Z,93.38
2022-10-22T11:50:01.511Z,93.15
2022-10-22T11:55:01.705Z,92.49
2022-10-22T12:00:01.992Z,93.42
2022-10-22T12:05:02.201Z,93.33
2022-10-22T12:10:01.386Z,93
2022-10-22T12:15:02.252Z,90.61
2022-10-22T12:20:02.464Z,90.42
2022-10-22T12:25:01.929Z,89.69
2022-10-22T12:30:01.732Z,89.27
2022-10-22T12:35:01.848Z,89.02
2022-10-22T12:40:01.597Z,87.94
2022-10-22T12:45:01.863Z,87.73
2022-10-22T12:50:01.679Z,88.11
2022-10-22T12:55:02.098Z,87.72
2022-10-22T13:00:02.127Z,87.55
2022-10-22T13:05:02.085Z,89.39
2022-10-22T13:10:01.912Z,90.19
2022-10-22T13:15:02.189Z,90.93
2022-10-22T13:20:01.682Z,90.92
2022-10-22T13:25:01.650Z,90.92
2022-10-22T13:30:01.704Z,91.44
2022-10-22T13:35:01.471Z,91.13
2022-10-22T13:40:01.643Z,91.01
2022-10-22T13:45:02.114Z,89.56
2022-10-22T13:50:01.774Z,90.72
2022-10-22T13:55:01.544Z,90.27
2022-10-22T14:00:02.366Z,90.2
2022-10-22T14:05:02.127Z,90.24
2022-10-22T14:10:01.702Z,89.68
2022-10-22T14:15:02.129Z,90.5
2022-10-22T14:20:02.235Z,89
2022-10-22T14:25:01.612Z,87.99
2022-10-22T14:30:01.665Z,88.52
2022-10-22T14:35:01.495Z,89.66
2022-10-22T14:40:01.932Z,86.34
2022-10-22T14:45:02.031Z,88.31
2022-10-22T14:50:01.898Z,88.24
2022-10-22T14:55:01.646Z,88.59
2022-10-22T15:00:01.640Z,89.83
2022-10-22T15:05:01.810Z,89.83
2022-10-22T15:10:01.335Z,85.67
2022-10-22T15:15:01.666Z,87.12
2022-10-22T15:20:01.816Z,85.11
2022-10-22T15:25:01.833Z,84.29
2022-10-22T15:30:08.429Z,84.78
2022-10-22T15:35:01.745Z,85.8
2022-10-22T15:40:02.016Z,86.77
2022-10-22T15:45:01.669Z,86.77
2022-10-22T15:50:01.894Z,87.5
2022-10-22T15:55:02.115Z,87.52
2022-10-22T16:00:02.260Z,88.46
2022-10-22T16:05:01.629Z,90.37
2022-10-22T16:10:01.490Z,91.14
2022-10-22T16:15:01.872Z,92.19
2022-10-22T16:20:01.880Z,92.73
2022-10-22T16:25:01.383Z,92.22
2022-10-22T16:30:01.716Z,91.7
2022-10-22T16:35:01.786Z,91.78
2022-10-22T16:40:04.541Z,92.35
2022-10-22T16:45:02.151Z,91.93
2022-10-22T16:50:01.851Z,92.03
2022-10-22T16:55:01.630Z,92.76
2022-10-22T17:00:01.488Z,93.37
2022-10-22T17:05:01.758Z,93.64
2022-10-22T17:10:02.070Z,93.45
2022-10-22T17:15:01.636Z,93.82
2022-10-22T17:20:02.159Z,94.77
2022-10-22T17:25:01.429Z,95.08
2022-10-22T17:30:02.088Z,96.09
2022-10-22T17:35:01.646Z,96.01
2022-10-22T17:40:01.922Z,95.71
2022-10-22T17:45:02.031Z,95.52
2022-10-22T17:50:02.144Z,95.89
2022-10-22T17:55:01.607Z,95.38
2022-10-22T18:00:01.358Z,94.92
2022-10-22T18:05:01.522Z,94.96
2022-10-22T18:10:01.542Z,95.2
2022-10-22T18:15:01.756Z,95.02
2022-10-22T18:20:01.390Z,94.81
2022-10-22T18:25:01.625Z,94.37
2022-10-22T18:30:01.424Z,94.35
2022-10-22T18:35:01.646Z,93.96
2022-10-22T18:40:02.145Z,93.59
2022-10-22T18:45:01.371Z,93.75
2022-10-22T18:50:01.897Z,94.6
2022-10-22T18:55:01.388Z,95.12
2022-10-22T19:00:02.239Z,95.36
2022-10-22T19:05:01.880Z,95.44
2022-10-22T19:10:01.412Z,95.55
2022-10-22T19:15:01.607Z,95.61
2022-10-22T19:20:02.116Z,95.88
2022-10-22T19:25:02.305Z,96.23
2022-10-22T19:30:01.651Z,96.7
2022-10-22T19:35:02.155Z,96.86
2022-10-22T19:40:01.830Z,96.82
2022-10-22T19:45:02.048Z,96.79
2022-10-22T19:50:01.667Z,96.83
2022-10-22T19:55:01.908Z,96.76
2022-10-22T20:00:01.628Z,96.76
2022-10-22T20:05:01.275Z,96.79
2022-10-22T20:10:01.516Z,96.79
2022-10-22T20:15:01.337Z,96.6
2022-10-22T20:20:01.663Z,96.66
2022-10-22T20:25:01.541Z,96.76
2022-10-22T20:30:01.834Z,96.79
2022-10-22T20:35:02.150Z,96.51
2022-10-22T20:40:01.956Z,96.34
2022-10-22T20:45:01.694Z,96.41
2022-10-22T20:50:02.145Z,96.84
2022-10-22T20:55:02.583Z,96.87
2022-10-22T21:00:01.654Z,96.94
2022-10-22T21:05:01.530Z,96.92
2022-10-22T21:10:02.078Z,96.95
2022-10-22T21:15:01.757Z,96.99
2022-10-22T21:20:01.906Z,97.04
2022-10-22T21:25:01.642Z,96.86
2022-10-22T21:30:01.542Z,97.06
2022-10-22T21:35:01.811Z,96.99
2022-10-22T21:40:02.220Z,97.23
2022-10-22T21:45:02.183Z,97.35
2022-10-22T21:50:01.920Z,97.06
2022-10-22T21:55:01.431Z,97.05
2022-10-22T22:00:01.710Z,97.46
2022-10-22T22:05:02.125Z,97.58
2022-10-22T22:10:01.999Z,97.82
2022-10-22T22:15:01.984Z,98.03
2022-10-22T22:20:01.784Z,97.7
2022-10-22T22:25:01.882Z,97.18
2022-10-22T22:30:01.850Z,97.5
2022-10-22T22:35:01.513Z,98.29
2022-10-22T22:40:01.349Z,98.46
2022-10-22T22:45:01.297Z,96.04
2022-10-22T22:50:01.404Z,98.27
2022-10-22T22:55:01.336Z,96.15
2022-10-22T23:00:01.952Z,98.38
2022-10-22T23:05:02.160Z,96.12
2022-10-22T23:10:02.126Z,98.42
2022-10-22T23:15:01.979Z,96.23
2022-10-22T23:20:01.981Z,98.68
2022-10-22T23:25:02.218Z,96.56
2022-10-22T23:30:01.899Z,98.32
2022-10-22T23:35:01.846Z,98.45
2022-10-22T23:40:01.996Z,98.96
2022-10-22T23:45:02.272Z,99.24
2022-10-22T23:50:01.879Z,99.48
2022-10-22T23:55:01.757Z,99.62
